Terminal Aerodrome Forecast
Issued by NWS

Current Version | Previous Version | Text Only | Print | Product List | Glossary On
Versions: 1 2 3 4 5 6 7 8 9 10 11 12 13 14 15 16 17 18 19 20
000
FTUS42 KTAE 190500
TAFABY
TAF
KABY 190538Z 1906/2006 07003KT P6SM BKN250
     FM191400 08006KT P6SM SCT100 BKN250 PROB30 1920/1924 5SM SHRA
      BKN040 OVC090
     FM200400 06003KT P6SM SCT250=

USA.gov is the U.S. government's official web portal to all federal, state and local government web resources and services.